createdAt,value
2023-02-12T00:00:46.506Z,54.90
2023-02-12T00:03:13.153Z,54.90
2023-02-12T00:05:40.247Z,54.80
2023-02-12T00:08:07.393Z,54.80
2023-02-12T00:10:34.000Z,54.60
2023-02-12T00:13:00.600Z,55.10
2023-02-12T00:15:27.185Z,55.10
2023-02-12T00:17:53.766Z,55.20
2023-02-12T00:20:20.416Z,54.80
2023-02-12T00:22:46.971Z,54.80
2023-02-12T00:25:13.987Z,55.80
2023-02-12T00:27:40.610Z,54.80
2023-02-12T00:30:07.396Z,55.10
2023-02-12T00:32:34.007Z,55.40
2023-02-12T00:35:00.616Z,55.10
2023-02-12T00:37:27.229Z,55.30
2023-02-12T00:39:53.863Z,55.50
2023-02-12T00:42:20.672Z,54.90
2023-02-12T00:44:47.341Z,54.90
2023-02-12T00:47:13.934Z,55.10
2023-02-12T00:49:40.527Z,55.20
2023-02-12T00:52:07.075Z,54.90
2023-02-12T00:54:33.681Z,55.00
2023-02-12T00:57:00.422Z,55.10
2023-02-12T00:59:27.012Z,55.80
2023-02-12T01:01:55.016Z,55.00
2023-02-12T01:04:22.073Z,55.10
2023-02-12T01:06:48.880Z,55.10
2023-02-12T01:09:15.527Z,55.00
2023-02-12T01:11:42.116Z,55.20
2023-02-12T01:14:08.716Z,55.10
2023-02-12T01:16:36.548Z,55.00
2023-02-12T01:19:04.386Z,55.10
2023-02-12T01:21:33.382Z,55.30
2023-02-12T01:24:00.570Z,55.20
2023-02-12T01:26:27.718Z,55.20
2023-02-12T01:28:55.428Z,55.10
2023-02-12T01:31:23.404Z,54.90
2023-02-12T01:33:50.982Z,55.50
2023-02-12T01:36:17.874Z,54.80
2023-02-12T01:38:44.844Z,54.60
2023-02-12T01:41:15.880Z,55.10
2023-02-12T01:43:42.610Z,55.10
2023-02-12T01:46:10.356Z,55.10
2023-02-12T01:48:39.124Z,54.90
2023-02-12T01:51:07.287Z,54.80
2023-02-12T01:53:36.921Z,54.80
2023-02-12T01:56:03.904Z,54.70
2023-02-12T01:58:35.254Z,54.70
2023-02-12T02:01:06.268Z,55.00
2023-02-12T02:03:33.752Z,54.90
2023-02-12T02:06:04.064Z,55.10
2023-02-12T02:08:30.697Z,54.80
2023-02-12T02:10:57.353Z,54.80
2023-02-12T02:13:42.843Z,54.80
2023-02-12T02:16:20.805Z,54.80
2023-02-12T02:18:56.251Z,54.80
2023-02-12T02:21:40.796Z,54.70
2023-02-12T02:24:23.992Z,54.90
2023-02-12T02:27:00.087Z,54.90
2023-02-12T02:29:39.538Z,54.80
2023-02-12T02:32:22.005Z,54.90
2023-02-12T02:34:54.541Z,55.00
2023-02-12T02:37:21.097Z,54.90
2023-02-12T02:39:59.944Z,54.90
2023-02-12T02:42:32.940Z,54.90
2023-02-12T02:45:02.204Z,54.90
2023-02-12T02:47:58.187Z,54.90
2023-02-12T02:50:27.232Z,55.00
2023-02-12T02:52:55.890Z,55.40
2023-02-12T02:55:24.016Z,54.90
2023-02-12T02:57:53.523Z,54.90
2023-02-12T03:00:31.468Z,55.00
2023-02-12T03:03:16.817Z,55.00
2023-02-12T03:05:45.816Z,55.00
2023-02-12T03:08:15.070Z,55.20
2023-02-12T03:10:46.977Z,54.90
2023-02-12T03:13:43.266Z,55.10
2023-02-12T03:16:14.095Z,55.10
2023-02-12T03:18:46.867Z,55.00
2023-02-12T03:21:15.250Z,54.90
2023-02-12T03:23:41.874Z,55.00
2023-02-12T03:26:11.330Z,55.00
2023-02-12T03:28:38.506Z,55.10
2023-02-12T03:31:23.736Z,54.90
2023-02-12T03:33:50.944Z,55.10
2023-02-12T03:36:34.574Z,55.00
2023-02-12T03:39:07.078Z,55.00
2023-02-12T03:41:42.762Z,55.00
2023-02-12T03:44:20.608Z,54.90
2023-02-12T03:46:54.668Z,54.70
2023-02-12T03:49:23.439Z,54.60
2023-02-12T03:51:50.005Z,54.60
2023-02-12T03:54:18.431Z,54.60
2023-02-12T03:56:52.462Z,54.80
2023-02-12T03:59:20.998Z,54.80
2023-02-12T04:01:48.714Z,54.80
2023-02-12T04:04:15.753Z,54.70
2023-02-12T04:06:42.569Z,55.70
2023-02-12T04:09:10.008Z,54.80
2023-02-12T04:11:36.511Z,54.50
2023-02-12T04:14:21.918Z,55.30
2023-02-12T04:16:51.742Z,54.60
2023-02-12T04:19:23.103Z,54.80
2023-02-12T04:21:59.593Z,54.80
2023-02-12T04:24:32.374Z,54.60
2023-02-12T04:27:11.100Z,54.70
2023-02-12T04:29:56.534Z,54.70
2023-02-12T04:32:34.989Z,54.90
2023-02-12T04:35:25.000Z,54.70
2023-02-12T04:38:10.150Z,54.90
2023-02-12T04:40:38.806Z,54.70
2023-02-12T04:43:05.359Z,54.90
2023-02-12T04:45:33.407Z,54.70
2023-02-12T04:48:00.353Z,54.80
2023-02-12T04:50:28.237Z,54.90
2023-02-12T04:52:54.820Z,54.90
2023-02-12T04:55:21.397Z,54.90
2023-02-12T04:57:47.972Z,54.90
2023-02-12T05:00:14.840Z,54.90
2023-02-12T05:02:41.520Z,54.90
2023-02-12T05:05:08.507Z,55.20
2023-02-12T05:07:35.158Z,54.90
2023-02-12T05:10:01.834Z,55.10
2023-02-12T05:12:28.520Z,54.80
2023-02-12T05:14:55.074Z,54.60
2023-02-12T05:17:22.914Z,54.40
2023-02-12T05:19:49.475Z,54.30
2023-02-12T05:22:16.126Z,54.20
2023-02-12T05:24:42.863Z,54.80
2023-02-12T05:27:09.461Z,54.20
2023-02-12T05:29:36.285Z,54.30
2023-02-12T05:32:03.992Z,54.30
2023-02-12T05:34:30.657Z,54.30
2023-02-12T05:36:57.199Z,54.10
2023-02-12T05:39:24.030Z,54.10
2023-02-12T05:41:50.740Z,54.10
2023-02-12T05:44:17.404Z,54.70
2023-02-12T05:46:44.368Z,54.10
2023-02-12T05:49:11.304Z,54.00
2023-02-12T05:51:39.514Z,54.00
2023-02-12T05:54:07.473Z,54.10
2023-02-12T05:56:36.019Z,54.10
2023-02-12T05:59:12.597Z,54.10
2023-02-12T06:01:40.416Z,54.00
2023-02-12T06:04:10.560Z,54.00
2023-02-12T06:06:37.186Z,54.10
2023-02-12T06:09:03.852Z,54.10
2023-02-12T06:11:30.415Z,54.00
2023-02-12T06:13:56.994Z,53.70
2023-02-12T06:16:25.209Z,54.00
2023-02-12T06:18:52.371Z,54.50
2023-02-12T06:21:20.080Z,54.10
2023-02-12T06:23:47.134Z,54.10
2023-02-12T06:26:13.738Z,54.00
2023-02-12T06:28:40.440Z,54.20
2023-02-12T06:31:16.983Z,54.40
2023-02-12T06:33:43.621Z,54.40
2023-02-12T06:36:10.215Z,54.20
2023-02-12T06:38:36.769Z,54.20
2023-02-12T06:41:03.432Z,54.20
2023-02-12T06:43:30.071Z,54.20
2023-02-12T06:45:57.043Z,54.70
2023-02-12T06:48:23.859Z,54.10
2023-02-12T06:50:50.623Z,54.30
2023-02-12T06:53:17.218Z,54.90
2023-02-12T06:55:43.881Z,53.90
2023-02-12T06:58:10.447Z,54.60
2023-02-12T07:00:37.093Z,53.90
2023-02-12T07:03:03.725Z,53.70
2023-02-12T07:05:30.348Z,53.60
2023-02-12T07:07:56.913Z,53.70
2023-02-12T07:10:23.934Z,53.70
2023-02-12T07:12:50.500Z,54.50
2023-02-12T07:15:17.095Z,53.80
2023-02-12T07:17:43.666Z,53.90
2023-02-12T07:20:10.500Z,53.90
2023-02-12T07:22:37.186Z,54.00
2023-02-12T07:25:04.060Z,54.50
2023-02-12T07:27:30.790Z,54.00
2023-02-12T07:29:57.375Z,54.00
2023-02-12T07:32:23.899Z,54.20
2023-02-12T07:34:50.435Z,54.10
2023-02-12T07:37:22.455Z,54.10
2023-02-12T07:39:49.379Z,54.10
2023-02-12T07:42:16.119Z,54.10
2023-02-12T07:44:42.704Z,54.10
2023-02-12T07:47:09.948Z,54.10
2023-02-12T07:49:36.515Z,54.10
2023-02-12T07:52:03.080Z,54.30
2023-02-12T07:54:29.992Z,54.20
2023-02-12T07:56:56.662Z,54.30
2023-02-12T07:59:23.219Z,54.30
2023-02-12T08:01:50.954Z,54.30
2023-02-12T08:04:20.680Z,54.20
2023-02-12T08:06:49.043Z,54.40
2023-02-12T08:09:20.076Z,54.80
2023-02-12T08:11:46.864Z,54.30
2023-02-12T08:14:14.618Z,54.40
2023-02-12T08:16:42.230Z,54.40
2023-02-12T08:19:19.512Z,54.40
2023-02-12T08:21:51.725Z,54.50
2023-02-12T08:24:18.721Z,54.40
2023-02-12T08:26:45.488Z,54.30
2023-02-12T08:29:13.511Z,54.30
2023-02-12T08:31:41.797Z,54.30
2023-02-12T08:34:15.425Z,54.10
2023-02-12T08:36:42.099Z,54.40
2023-02-12T08:39:08.811Z,54.20
2023-02-12T08:41:36.107Z,54.30
2023-02-12T08:44:04.184Z,54.40
2023-02-12T08:46:32.530Z,54.40
2023-02-12T08:49:00.993Z,54.20
2023-02-12T08:51:32.466Z,54.40
2023-02-12T08:54:00.892Z,54.30
2023-02-12T08:56:29.895Z,54.20
2023-02-12T08:58:57.172Z,54.30
2023-02-12T09:01:25.396Z,54.40
2023-02-12T09:03:52.615Z,54.50
2023-02-12T09:06:20.402Z,54.70
2023-02-12T09:08:47.560Z,54.60
2023-02-12T09:11:18.220Z,54.50
2023-02-12T09:13:45.839Z,54.60
2023-02-12T09:16:12.716Z,59.00
2023-02-12T09:18:39.722Z,59.60
2023-02-12T09:21:11.036Z,57.10
2023-02-12T09:23:38.245Z,56.80
2023-02-12T09:26:09.098Z,56.50
2023-02-12T09:28:36.229Z,56.70
2023-02-12T09:31:06.985Z,57.10
2023-02-12T09:33:33.711Z,57.10
2023-02-12T09:36:04.380Z,57.30
2023-02-12T09:38:31.382Z,57.20
2023-02-12T09:41:16.903Z,57.40
2023-02-12T09:43:58.265Z,57.50
2023-02-12T09:46:24.843Z,58.00
2023-02-12T09:48:51.397Z,58.10
2023-02-12T09:51:18.276Z,57.60
2023-02-12T09:53:46.507Z,58.20
2023-02-12T09:56:13.703Z,57.40
2023-02-12T09:58:49.609Z,57.60
2023-02-12T10:01:18.032Z,58.70
2023-02-12T10:03:45.285Z,57.80
2023-02-12T10:06:17.092Z,57.70
2023-02-12T10:09:02.153Z,57.50
2023-02-12T10:11:28.829Z,57.10
2023-02-12T10:14:30.820Z,56.90
2023-02-12T10:17:12.139Z,57.30
2023-02-12T10:20:01.577Z,57.20
2023-02-12T10:22:37.560Z,59.40
2023-02-12T10:25:09.486Z,57.40
2023-02-12T10:27:36.016Z,57.70
2023-02-12T10:30:04.353Z,57.20
2023-02-12T10:32:33.041Z,57.30
2023-02-12T10:34:59.766Z,58.00
2023-02-12T10:37:45.059Z,57.60
2023-02-12T10:40:14.636Z,57.80
2023-02-12T10:42:43.165Z,58.90
2023-02-12T10:45:13.959Z,58.10
2023-02-12T10:47:40.638Z,58.20
2023-02-12T10:50:27.518Z,59.70
2023-02-12T10:52:55.855Z,59.60
2023-02-12T10:55:26.825Z,58.20
2023-02-12T10:57:53.597Z,59.60
2023-02-12T11:00:28.898Z,60.10
2023-02-12T11:03:01.817Z,60.50
2023-02-12T11:05:30.981Z,59.10
2023-02-12T11:07:57.640Z,58.60
2023-02-12T11:10:32.298Z,58.70
2023-02-12T11:12:59.932Z,60.40
2023-02-12T11:15:28.181Z,60.00
2023-02-12T11:17:56.274Z,64.50
2023-02-12T11:20:43.442Z,59.20
2023-02-12T11:23:29.483Z,58.60
2023-02-12T11:26:03.860Z,59.70
2023-02-12T11:28:31.352Z,59.50
2023-02-12T11:30:59.512Z,60.30
2023-02-12T11:33:27.883Z,58.90
2023-02-12T11:35:59.040Z,59.10
2023-02-12T11:38:30.475Z,60.10
2023-02-12T11:41:00.005Z,59.80
2023-02-12T11:43:28.748Z,59.70
2023-02-12T11:45:57.042Z,59.20
2023-02-12T11:48:25.706Z,58.60
2023-02-12T11:50:53.412Z,58.20
2023-02-12T11:53:22.701Z,58.60
2023-02-12T11:56:00.834Z,59.40
2023-02-12T11:58:28.086Z,59.20
2023-02-12T12:00:58.762Z,59.70
2023-02-12T12:03:31.939Z,58.80
2023-02-12T12:06:21.876Z,59.60
2023-02-12T12:08:51.255Z,59.20
2023-02-12T12:11:22.495Z,59.70
2023-02-12T12:13:52.142Z,58.80
2023-02-12T12:16:45.609Z,59.80
2023-02-12T12:19:56.208Z,59.30
2023-02-12T12:22:30.204Z,59.50
2023-02-12T12:25:05.302Z,58.60
2023-02-12T12:28:02.989Z,59.10
2023-02-12T12:30:44.829Z,60.50
2023-02-12T12:33:15.475Z,60.00
2023-02-12T12:36:00.391Z,59.10
2023-02-12T12:38:36.025Z,58.90
2023-02-12T12:41:08.567Z,60.00
2023-02-12T12:43:45.334Z,59.80
2023-02-12T12:46:21.040Z,60.10
2023-02-12T12:49:07.654Z,60.30
2023-02-12T12:51:49.205Z,59.70
2023-02-12T12:54:36.825Z,59.80
2023-02-12T12:57:03.377Z,60.00
2023-02-12T12:59:41.970Z,60.10
2023-02-12T13:02:14.584Z,60.30
2023-02-12T13:04:59.970Z,60.00
2023-02-12T13:07:45.381Z,60.10
2023-02-12T13:10:17.560Z,60.30
2023-02-12T13:12:54.558Z,60.40
2023-02-12T13:15:26.640Z,60.50
2023-02-12T13:17:53.150Z,60.50
2023-02-12T13:20:34.986Z,60.00
2023-02-12T13:23:16.997Z,59.70
2023-02-12T13:25:49.705Z,59.30
2023-02-12T13:28:22.617Z,58.50
2023-02-12T13:30:50.134Z,59.60
2023-02-12T13:33:24.944Z,59.80
2023-02-12T13:35:53.994Z,59.70
2023-02-12T13:38:23.072Z,59.90
2023-02-12T13:40:50.078Z,59.20
2023-02-12T13:43:27.827Z,59.90
2023-02-12T13:46:01.286Z,59.40
2023-02-12T13:48:33.747Z,59.30
2023-02-12T13:51:05.966Z,59.10
2023-02-12T13:53:32.555Z,59.30
2023-02-12T13:56:02.267Z,60.70
2023-02-12T13:58:35.243Z,59.60
2023-02-12T14:01:03.391Z,58.90
2023-02-12T14:03:30.878Z,60.10
2023-02-12T14:06:09.821Z,59.80
2023-02-12T14:09:03.323Z,59.80
2023-02-12T14:11:29.980Z,59.30
2023-02-12T14:14:04.842Z,59.70
2023-02-12T14:16:31.380Z,59.80
2023-02-12T14:19:16.886Z,60.30
2023-02-12T14:21:43.531Z,60.00
2023-02-12T14:24:28.946Z,61.00
2023-02-12T14:26:55.636Z,58.90
2023-02-12T14:29:22.278Z,59.50
2023-02-12T14:31:49.048Z,60.00
2023-02-12T14:34:16.596Z,60.10
2023-02-12T14:36:44.278Z,59.90
2023-02-12T14:39:19.989Z,59.30
2023-02-12T14:41:53.371Z,59.10
2023-02-12T14:44:21.511Z,59.30
2023-02-12T14:46:49.118Z,59.30
2023-02-12T14:49:27.978Z,60.00
2023-02-12T14:51:59.973Z,59.60
2023-02-12T14:54:30.182Z,59.50
2023-02-12T14:56:58.909Z,59.70
2023-02-12T14:59:25.902Z,60.20
2023-02-12T15:01:53.208Z,60.00
2023-02-12T15:04:22.960Z,60.20
2023-02-12T15:06:52.163Z,60.30
2023-02-12T15:09:21.585Z,59.60
2023-02-12T15:11:54.354Z,59.40
2023-02-12T15:14:28.845Z,59.60
2023-02-12T15:17:00.046Z,59.60
2023-02-12T15:19:35.965Z,59.60
2023-02-12T15:22:02.525Z,59.00
2023-02-12T15:24:29.177Z,59.20
2023-02-12T15:27:00.735Z,59.20
2023-02-12T15:29:33.055Z,59.40
2023-02-12T15:32:01.436Z,59.50
2023-02-12T15:34:30.236Z,59.20
2023-02-12T15:36:58.505Z,59.10
2023-02-12T15:39:25.495Z,58.90
2023-02-12T15:41:52.266Z,58.90
2023-02-12T15:44:20.492Z,59.20
2023-02-12T15:47:13.598Z,58.60
2023-02-12T15:49:41.232Z,58.40
2023-02-12T15:52:34.533Z,59.20
2023-02-12T15:55:02.688Z,59.00
2023-02-12T15:57:29.327Z,59.10
2023-02-12T15:59:57.542Z,59.20
2023-02-12T16:02:28.976Z,59.50
2023-02-12T16:04:59.253Z,59.10
2023-02-12T16:07:27.393Z,60.10
2023-02-12T16:09:54.574Z,58.90
2023-02-12T16:12:23.355Z,59.30
2023-02-12T16:15:00.905Z,58.90
2023-02-12T16:17:28.753Z,58.80
2023-02-12T16:19:55.395Z,59.20
2023-02-12T16:22:24.594Z,59.60
2023-02-12T16:24:52.071Z,59.20
2023-02-12T16:27:20.374Z,58.90
2023-02-12T16:29:54.839Z,58.60
2023-02-12T16:32:30.403Z,58.90
2023-02-12T16:35:05.505Z,59.30
2023-02-12T16:37:35.038Z,58.80
2023-02-12T16:40:14.150Z,59.00
2023-02-12T16:42:46.760Z,59.00
2023-02-12T16:45:28.805Z,59.10
2023-02-12T16:47:59.915Z,59.10
2023-02-12T16:50:29.939Z,59.10
2023-02-12T16:53:04.799Z,58.80
2023-02-12T16:55:31.974Z,59.00
2023-02-12T16:57:59.592Z,58.90
2023-02-12T17:00:26.607Z,59.00
2023-02-12T17:02:56.388Z,58.80
2023-02-12T17:05:23.353Z,58.70
2023-02-12T17:07:50.319Z,58.80
2023-02-12T17:10:17.686Z,59.00
2023-02-12T17:12:48.565Z,59.10
2023-02-12T17:15:21.346Z,58.90
2023-02-12T17:17:47.927Z,58.70
2023-02-12T17:20:14.618Z,59.00
2023-02-12T17:22:44.728Z,59.20
2023-02-12T17:25:11.943Z,59.10
2023-02-12T17:27:38.472Z,59.10
2023-02-12T17:30:07.100Z,59.30
2023-02-12T17:32:33.656Z,58.60
2023-02-12T17:35:00.340Z,58.30
2023-02-12T17:37:27.039Z,58.30
2023-02-12T17:39:55.130Z,58.40
2023-02-12T17:42:21.697Z,59.00
2023-02-12T17:44:48.511Z,58.60
2023-02-12T17:47:15.069Z,58.80
2023-02-12T17:49:42.141Z,58.50
2023-02-12T17:52:08.824Z,58.40
2023-02-12T17:54:35.484Z,58.80
2023-02-12T17:57:02.488Z,58.20
2023-02-12T17:59:29.197Z,58.20
2023-02-12T18:01:55.913Z,58.40
2023-02-12T18:04:22.608Z,58.50
2023-02-12T18:06:49.217Z,58.90
2023-02-12T18:09:15.810Z,58.90
2023-02-12T18:11:42.459Z,58.50
2023-02-12T18:14:10.896Z,58.50
2023-02-12T18:16:37.534Z,58.70
2023-02-12T18:19:06.847Z,58.80
2023-02-12T18:21:34.950Z,58.60
2023-02-12T18:24:01.673Z,58.80
2023-02-12T18:26:28.223Z,58.60
2023-02-12T18:28:57.671Z,58.40
2023-02-12T18:31:24.389Z,58.50
2023-02-12T18:33:51.027Z,58.90
2023-02-12T18:36:18.704Z,58.80
2023-02-12T18:38:46.382Z,58.40
2023-02-12T18:41:18.066Z,58.80
2023-02-12T18:43:44.984Z,58.60
2023-02-12T18:46:16.546Z,58.90
2023-02-12T18:48:43.367Z,58.50
2023-02-12T18:51:13.065Z,58.70
2023-02-12T18:53:39.667Z,59.00
2023-02-12T18:56:07.524Z,58.80
2023-02-12T18:58:34.538Z,58.90
2023-02-12T19:01:01.521Z,58.90
2023-02-12T19:03:28.127Z,59.20
2023-02-12T19:06:01.976Z,58.50
2023-02-12T19:08:28.496Z,58.40
2023-02-12T19:10:55.394Z,58.10
2023-02-12T19:13:22.140Z,58.10
2023-02-12T19:15:48.718Z,58.60
2023-02-12T19:18:16.485Z,58.30
2023-02-12T19:20:43.094Z,58.60
2023-02-12T19:23:09.662Z,58.60
2023-02-12T19:25:42.830Z,58.40
2023-02-12T19:28:10.205Z,58.30
2023-02-12T19:30:37.395Z,58.60
2023-02-12T19:33:04.028Z,58.50
2023-02-12T19:35:30.571Z,58.90
2023-02-12T19:37:57.183Z,59.00
2023-02-12T19:40:23.740Z,58.70
2023-02-12T19:42:50.370Z,58.90
2023-02-12T19:45:16.959Z,58.60
2023-02-12T19:47:43.555Z,58.90
2023-02-12T19:50:11.212Z,59.40
2023-02-12T19:52:37.962Z,59.20
2023-02-12T19:55:04.627Z,59.40
2023-02-12T19:57:31.226Z,59.20
2023-02-12T19:59:57.854Z,58.60
2023-02-12T20:02:24.511Z,58.90
2023-02-12T20:04:51.215Z,59.40
2023-02-12T20:07:17.798Z,59.50
2023-02-12T20:09:44.356Z,58.90
2023-02-12T20:12:11.039Z,59.50
2023-02-12T20:14:37.593Z,58.70
2023-02-12T20:17:04.280Z,58.90
2023-02-12T20:19:31.671Z,58.80
2023-02-12T20:21:59.022Z,59.40
2023-02-12T20:24:26.948Z,59.10
2023-02-12T20:26:54.098Z,58.70
2023-02-12T20:29:20.859Z,58.80
2023-02-12T20:31:48.099Z,58.60
2023-02-12T20:34:15.622Z,59.20
2023-02-12T20:36:43.042Z,58.90
2023-02-12T20:39:10.741Z,59.00
2023-02-12T20:41:37.565Z,59.30
2023-02-12T20:44:05.716Z,58.90
2023-02-12T20:46:32.345Z,59.10
2023-02-12T20:48:58.996Z,59.20
2023-02-12T20:51:26.776Z,59.10
2023-02-12T20:53:55.239Z,59.30
2023-02-12T20:56:23.696Z,59.10
2023-02-12T20:58:50.333Z,59.30
2023-02-12T21:01:21.755Z,58.90
2023-02-12T21:03:48.718Z,59.10
2023-02-12T21:06:15.343Z,59.40
2023-02-12T21:08:42.188Z,59.00
2023-02-12T21:11:14.590Z,58.90
2023-02-12T21:13:53.847Z,58.90
2023-02-12T21:16:30.328Z,58.60
2023-02-12T21:18:57.184Z,59.20
2023-02-12T21:21:25.026Z,59.00
2023-02-12T21:23:53.277Z,58.80
2023-02-12T21:26:22.559Z,58.80
2023-02-12T21:28:49.960Z,58.80
2023-02-12T21:31:36.957Z,58.50
2023-02-12T21:34:04.411Z,58.60
2023-02-12T21:36:32.553Z,58.30
2023-02-12T21:38:59.138Z,58.40
2023-02-12T21:41:26.805Z,58.20
2023-02-12T21:44:00.925Z,58.60
2023-02-12T21:46:27.907Z,59.00
2023-02-12T21:48:54.944Z,58.50
2023-02-12T21:51:22.698Z,58.60
2023-02-12T21:53:50.392Z,58.90
2023-02-12T21:56:17.371Z,58.70
2023-02-12T21:58:44.474Z,59.20
2023-02-12T22:01:15.324Z,59.10
2023-02-12T22:03:41.912Z,58.80
2023-02-12T22:06:08.922Z,58.70
2023-02-12T22:08:36.045Z,58.80
2023-02-12T22:11:03.951Z,58.50
2023-02-12T22:13:30.874Z,58.90
2023-02-12T22:15:58.223Z,59.10
2023-02-12T22:18:24.823Z,58.80
2023-02-12T22:20:51.462Z,58.80
2023-02-12T22:23:18.023Z,58.90
2023-02-12T22:25:44.575Z,58.80
2023-02-12T22:28:11.199Z,59.00
2023-02-12T22:30:39.655Z,59.00
2023-02-12T22:33:06.231Z,58.50
2023-02-12T22:35:32.792Z,58.80
2023-02-12T22:37:59.354Z,59.00
2023-02-12T22:40:25.905Z,59.10
2023-02-12T22:42:52.460Z,59.00
2023-02-12T22:45:19.057Z,59.00
2023-02-12T22:47:45.658Z,59.20
2023-02-12T22:50:12.222Z,59.00
2023-02-12T22:52:38.789Z,58.90
2023-02-12T22:55:05.446Z,58.70
2023-02-12T22:57:32.014Z,58.70
2023-02-12T22:59:58.606Z,59.10
2023-02-12T23:02:25.194Z,59.00
2023-02-12T23:04:51.867Z,59.00
2023-02-12T23:07:18.427Z,59.20
2023-02-12T23:09:44.974Z,59.30
2023-02-12T23:12:11.650Z,58.80
2023-02-12T23:14:38.222Z,59.10
2023-02-12T23:17:04.788Z,59.10
2023-02-12T23:19:31.540Z,59.20
2023-02-12T23:21:58.390Z,59.10
2023-02-12T23:24:25.794Z,58.80
2023-02-12T23:26:53.220Z,58.90
2023-02-12T23:29:20.148Z,59.40
2023-02-12T23:31:47.014Z,59.10
2023-02-12T23:34:13.725Z,59.20
2023-02-12T23:36:40.359Z,58.80
2023-02-12T23:39:07.328Z,59.20
2023-02-12T23:41:33.962Z,59.40
2023-02-12T23:44:00.571Z,58.80
2023-02-12T23:46:27.175Z,58.70
2023-02-12T23:48:53.775Z,58.30
2023-02-12T23:51:20.397Z,59.30
2023-02-12T23:53:46.939Z,58.80
2023-02-12T23:56:13.514Z,59.00
2023-02-12T23:58:40.406Z,59.00
